Time;durP1;ratioP1;P1;durP2;ratioP2;P2;SDS_P1;SDS_P2;PMS_P1;PMS_P2;Temp;Humidity;BMP_temperature;BMP_pressure;BME280_temperature;BME280_humidity;BME280_pressure;Samples;Min_cycle;Max_cycle;Signal;HPM_P1;HPM_P2
2021/11/22 00:00:33;;;;;;;1.52;0.30;;;3.00;99.90;;;;;;4985649;28;20050;-64
2021/11/22 00:03:01;;;;;;;1.40;0.70;;;3.00;99.90;;;;;;4989369;28;20141;-71
2021/11/22 00:05:28;;;;;;;1.90;0.30;;;2.90;99.90;;;;;;4986988;28;20150;-65
2021/11/22 00:07:55;;;;;;;1.52;0.70;;;3.00;99.90;;;;;;4995691;28;20039;-65
2021/11/22 00:10:23;;;;;;;1.52;0.28;;;2.90;99.90;;;;;;4987771;28;20661;-67
2021/11/22 00:12:50;;;;;;;2.13;0.50;;;2.90;99.90;;;;;;4983786;28;20038;-66
2021/11/22 00:15:18;;;;;;;0.73;0.50;;;2.90;99.90;;;;;;4984699;28;22298;-65
2021/11/22 00:17:46;;;;;;;1.42;0.68;;;2.80;99.90;;;;;;4988654;28;20114;-69
2021/11/22 00:20:16;;;;;;;1.88;0.50;;;2.70;99.90;;;;;;4986849;28;20049;-65
2021/11/22 00:22:44;;;;;;;1.10;0.45;;;2.60;99.90;;;;;;4988912;28;20667;-66
2021/11/22 00:25:12;;;;;;;1.15;0.32;;;2.60;99.90;;;;;;4979009;28;20175;-70
2021/11/22 00:27:40;;;;;;;1.30;0.70;;;2.50;99.90;;;;;;4986036;28;20050;-64
2021/11/22 00:30:39;;;;;;;2.15;0.43;;;2.40;99.90;;;;;;4997080;28;20057;-64
2021/11/22 00:33:10;;;;;;;3.70;0.57;;;2.40;99.90;;;;;;4985139;28;20468;-65
2021/11/22 00:35:49;;;;;;;2.35;0.40;;;2.30;99.90;;;;;;4988536;28;20043;-69
2021/11/22 00:38:16;;;;;;;1.17;1.08;;;2.20;99.90;;;;;;4984731;28;20050;-66
2021/11/22 00:40:44;;;;;;;0.70;0.43;;;2.20;99.90;;;;;;4989191;28;20034;-64
2021/11/22 00:43:11;;;;;;;1.23;0.40;;;2.10;99.90;;;;;;4984294;28;20128;-64
2021/11/22 00:45:39;;;;;;;2.75;0.60;;;2.10;99.90;;;;;;4993350;28;20045;-70
2021/11/22 00:48:07;;;;;;;0.77;0.20;;;2.00;99.90;;;;;;4988185;28;20073;-64
2021/11/22 00:50:35;;;;;;;1.02;0.40;;;2.00;99.90;;;;;;4987440;28;20105;-67
2021/11/22 00:53:03;;;;;;;0.30;0.30;;;2.00;99.90;;;;;;4984451;28;20463;-65
2021/11/22 00:55:30;;;;;;;3.95;0.75;;;1.90;99.90;;;;;;4984833;28;20042;-68
2021/11/22 00:57:57;;;;;;;0.77;0.40;;;1.90;99.90;;;;;;4984082;28;20361;-66
2021/11/22 01:00:24;;;;;;;2.50;0.40;;;1.90;99.90;;;;;;4987949;28;20104;-65
2021/11/22 01:02:52;;;;;;;2.30;0.40;;;1.80;99.90;;;;;;4987993;28;20058;-66
2021/11/22 01:05:19;;;;;;;2.17;0.20;;;1.80;99.90;;;;;;4986315;28;20050;-65
2021/11/22 01:07:46;;;;;;;1.73;0.30;;;1.80;99.90;;;;;;4988132;28;20058;-64
2021/11/22 01:10:15;;;;;;;4.47;0.60;;;1.80;99.90;;;;;;4981219;28;20054;-67
2021/11/22 01:12:42;;;;;;;1.60;1.50;;;1.70;99.90;;;;;;4985907;28;20046;-64
2021/11/22 01:15:14;;;;;;;0.93;0.30;;;1.70;99.90;;;;;;4982592;28;20587;-65
2021/11/22 01:17:42;;;;;;;1.20;0.30;;;1.70;99.90;;;;;;4986629;28;20062;-67
2021/11/22 01:20:12;;;;;;;1.38;0.52;;;1.70;99.90;;;;;;4985963;28;20073;-68
2021/11/22 01:22:39;;;;;;;;;;;1.60;99.90;;;;;;4986468;28;20124;-66
2021/11/22 01:25:08;;;;;;;0.50;0.20;;;1.60;99.90;;;;;;4981464;28;19953;-67
2021/11/22 01:27:47;;;;;;;0.93;0.30;;;1.60;99.90;;;;;;4986813;28;20045;-66
2021/11/22 01:30:15;;;;;;;0.25;0.20;;;1.50;99.90;;;;;;4983220;28;20137;-64
2021/11/22 01:32:44;;;;;;;1.20;0.20;;;1.50;99.90;;;;;;4986309;28;20519;-64
2021/11/22 01:35:11;;;;;;;1.10;0.22;;;1.50;99.90;;;;;;4987769;28;20130;-64
2021/11/22 01:37:38;;;;;;;0.85;0.40;;;1.50;99.90;;;;;;4983444;28;20945;-67
2021/11/22 01:40:07;;;;;;;0.60;0.30;;;1.50;99.90;;;;;;4986376;28;20050;-64
2021/11/22 01:42:37;;;;;;;1.98;0.50;;;1.50;99.90;;;;;;4984139;28;20077;-65
2021/11/22 01:45:06;;;;;;;4.63;0.70;;;1.40;99.90;;;;;;4985335;28;20046;-65
2021/11/22 01:47:33;;;;;;;3.63;1.25;;;1.40;99.90;;;;;;4986167;28;20046;-66
2021/11/22 01:50:00;;;;;;;2.30;0.30;;;1.30;99.90;;;;;;4987186;28;20342;-67
2021/11/22 01:52:27;;;;;;;2.58;0.55;;;1.30;99.90;;;;;;4985951;28;20539;-66
2021/11/22 01:54:54;;;;;;;2.17;0.30;;;1.30;99.90;;;;;;4986524;28;20424;-67
2021/11/22 01:57:22;;;;;;;0.30;0.25;;;1.30;99.90;;;;;;4984834;28;20124;-64
2021/11/22 01:59:48;;;;;;;0.63;0.38;;;1.30;99.90;;;;;;4984574;28;20054;-65
2021/11/22 02:02:16;;;;;;;1.52;0.60;;;1.20;99.90;;;;;;4985211;28;20416;-65
2021/11/22 02:04:43;;;;;;;0.38;0.30;;;1.20;99.90;;;;;;4986289;28;20129;-64
2021/11/22 02:07:11;;;;;;;2.95;1.13;;;1.20;99.90;;;;;;4982728;28;20050;-64
2021/11/22 02:09:38;;;;;;;0.75;0.52;;;1.20;99.90;;;;;;4984599;28;20041;-63
2021/11/22 02:12:06;;;;;;;4.05;1.08;;;1.20;99.90;;;;;;4984591;28;20764;-64
2021/11/22 02:14:33;;;;;;;1.10;0.40;;;1.10;99.90;;;;;;4984772;28;20184;-66
2021/11/22 02:17:01;;;;;;;2.88;0.52;;;1.10;99.90;;;;;;4984192;28;20054;-64
2021/11/22 02:19:29;;;;;;;1.95;0.75;;;1.10;99.90;;;;;;4983775;28;20403;-65
2021/11/22 02:21:56;;;;;;;2.95;2.00;;;1.10;99.90;;;;;;4986292;28;20544;-67
2021/11/22 02:24:23;;;;;;;3.13;1.70;;;1.10;99.90;;;;;;4983038;28;20046;-65
2021/11/22 02:26:50;;;;;;;2.13;0.40;;;1.10;99.90;;;;;;5000519;28;20061;-65
2021/11/22 02:29:19;;;;;;;0.55;0.50;;;1.10;99.90;;;;;;4981888;28;20112;-64
2021/11/22 02:31:46;;;;;;;1.00;0.47;;;1.10;99.90;;;;;;4986408;28;20058;-65
2021/11/22 02:34:14;;;;;;;1.38;0.60;;;1.10;99.90;;;;;;4985211;28;20480;-65
2021/11/22 02:36:41;;;;;;;1.88;0.60;;;1.10;99.90;;;;;;4985844;28;20054;-67
2021/11/22 02:39:08;;;;;;;1.90;0.55;;;1.10;99.90;;;;;;4984237;28;20433;-64
2021/11/22 02:41:38;;;;;;;1.38;0.60;;;1.00;99.90;;;;;;4984621;28;20050;-64
2021/11/22 02:44:05;;;;;;;0.60;0.45;;;1.00;99.90;;;;;;4984911;28;20049;-64
2021/11/22 02:46:32;;;;;;;1.35;0.80;;;1.00;99.90;;;;;;4988093;28;20046;-64
2021/11/22 02:48:59;;;;;;;1.00;0.55;;;1.00;99.90;;;;;;4982710;28;20093;-67
2021/11/22 02:51:26;;;;;;;1.88;1.02;;;1.00;99.90;;;;;;4983980;28;20046;-67
2021/11/22 02:54:00;;;;;;;1.90;0.60;;;1.00;99.90;;;;;;4986457;28;20101;-64
2021/11/22 02:56:32;;;;;;;5.25;0.95;;;1.00;99.90;;;;;;4985453;28;20046;-69
2021/11/22 02:59:00;;;;;;;1.02;0.57;;;1.00;99.90;;;;;;4987190;28;20045;-68
2021/11/22 03:01:27;;;;;;;2.08;0.90;;;1.00;99.90;;;;;;4992441;28;20050;-66
2021/11/22 03:03:55;;;;;;;2.22;0.60;;;1.00;99.90;;;;;;4987392;28;20383;-68
2021/11/22 03:06:22;;;;;;;1.67;0.85;;;0.90;99.90;;;;;;4989409;28;20058;-65
2021/11/22 03:08:51;;;;;;;1.17;0.70;;;0.90;99.90;;;;;;4986038;28;20157;-66
2021/11/22 03:11:19;;;;;;;2.03;1.52;;;1.00;99.90;;;;;;4981363;28;20137;-66
2021/11/22 03:13:47;;;;;;;0.57;0.57;;;0.90;99.90;;;;;;4983297;28;20077;-65
2021/11/22 03:16:16;;;;;;;2.75;1.00;;;1.00;99.90;;;;;;4978913;28;20516;-65
2021/11/22 03:18:43;;;;;;;0.70;0.50;;;1.00;99.90;;;;;;4976112;28;20050;-66
2021/11/22 03:21:10;;;;;;;3.10;0.90;;;1.00;99.90;;;;;;4979881;28;20141;-64
2021/11/22 03:23:40;;;;;;;0.95;0.45;;;1.00;99.90;;;;;;4988330;28;20058;-67
2021/11/22 03:26:07;;;;;;;1.08;0.70;;;1.00;99.90;;;;;;4984249;28;20050;-65
2021/11/22 03:28:35;;;;;;;0.65;0.60;;;1.00;99.90;;;;;;4985019;28;20050;-66
2021/11/22 03:31:02;;;;;;;1.58;0.90;;;1.00;99.90;;;;;;4983073;28;20475;-64
2021/11/22 03:33:30;;;;;;;0.80;0.60;;;1.00;99.90;;;;;;4986064;28;20081;-65
2021/11/22 03:35:57;;;;;;;1.63;0.90;;;1.00;99.90;;;;;;4985628;28;20055;-65
2021/11/22 03:38:26;;;;;;;1.70;1.05;;;1.00;99.90;;;;;;4989768;28;20053;-66
2021/11/22 03:40:56;;;;;;;1.83;0.93;;;1.00;99.90;;;;;;4988194;28;20046;-65
2021/11/22 03:43:43;;;;;;;1.10;0.82;;;1.00;99.90;;;;;;4983242;28;20046;-64
2021/11/22 03:46:10;;;;;;;0.95;0.65;;;1.00;99.90;;;;;;4992258;28;20385;-64
2021/11/22 03:48:37;;;;;;;0.45;0.40;;;1.00;99.90;;;;;;4992370;28;20050;-67
2021/11/22 03:51:04;;;;;;;1.27;0.70;;;0.90;99.90;;;;;;4986916;28;20066;-66
2021/11/22 03:53:32;;;;;;;1.48;0.73;;;0.90;99.90;;;;;;5001598;28;20539;-65
2021/11/22 03:55:59;;;;;;;1.35;0.70;;;0.90;99.90;;;;;;4997481;28;20092;-66
2021/11/22 03:58:26;;;;;;;1.98;1.17;;;0.90;99.90;;;;;;4986222;28;20097;-68
2021/11/22 04:00:53;;;;;;;1.58;1.05;;;0.80;99.90;;;;;;4991059;28;20045;-64
2021/11/22 04:03:21;;;;;;;2.25;0.70;;;0.80;99.90;;;;;;4985635;28;20056;-64
2021/11/22 04:05:49;;;;;;;1.95;0.52;;;0.80;99.90;;;;;;4988432;28;20049;-71
2021/11/22 04:08:16;;;;;;;1.10;0.60;;;0.80;99.90;;;;;;4987629;28;20129;-66
2021/11/22 04:10:43;;;;;;;0.80;0.73;;;0.80;99.90;;;;;;4987729;28;20053;-64
2021/11/22 04:13:10;;;;;;;2.40;0.60;;;0.80;99.90;;;;;;4984061;28;20093;-64
2021/11/22 04:15:38;;;;;;;1.60;0.50;;;0.70;99.90;;;;;;4987195;28;20100;-64
2021/11/22 04:18:06;;;;;;;2.70;0.60;;;0.70;99.90;;;;;;4987261;28;20133;-64
2021/11/22 04:20:34;;;;;;;0.60;0.40;;;0.70;99.90;;;;;;4986465;28;20046;-67
2021/11/22 04:23:02;;;;;;;0.70;0.50;;;0.70;99.90;;;;;;4994783;28;20054;-69
2021/11/22 04:25:29;;;;;;;1.25;0.68;;;0.70;99.90;;;;;;4984405;28;20054;-64
2021/11/22 04:27:56;;;;;;;1.13;0.47;;;0.70;99.90;;;;;;4988106;28;20476;-69
2021/11/22 04:30:23;;;;;;;5.70;0.63;;;0.70;99.90;;;;;;4987171;28;20058;-65
2021/11/22 04:32:50;;;;;;;0.52;0.43;;;0.70;99.90;;;;;;4993348;28;20058;-65
2021/11/22 04:35:17;;;;;;;2.20;0.63;;;0.70;99.90;;;;;;4983889;28;20049;-66
2021/11/22 04:37:44;;;;;;;7.95;0.73;;;0.70;99.90;;;;;;4992559;28;20721;-64
2021/11/22 04:40:15;;;;;;;1.25;0.60;;;0.70;99.90;;;;;;4987290;28;20219;-67
2021/11/22 04:42:47;;;;;;;1.63;0.68;;;0.70;99.90;;;;;;4987221;28;20038;-69
2021/11/22 04:45:16;;;;;;;2.35;0.60;;;0.70;99.90;;;;;;4985296;28;20061;-64
2021/11/22 04:47:45;;;;;;;2.80;0.70;;;0.70;99.90;;;;;;4992572;28;20658;-66
2021/11/22 04:50:13;;;;;;;1.00;0.70;;;0.70;99.90;;;;;;4985333;28;20050;-63
2021/11/22 04:52:40;;;;;;;1.13;0.57;;;0.70;99.90;;;;;;4988339;28;20073;-65
2021/11/22 04:55:09;;;;;;;1.65;0.98;;;0.70;99.90;;;;;;4983534;28;20109;-63
2021/11/22 04:57:36;;;;;;;3.20;0.70;;;0.70;99.90;;;;;;4987416;28;20183;-64
2021/11/22 05:00:05;;;;;;;1.08;0.60;;;0.70;99.90;;;;;;4986361;28;20100;-65
2021/11/22 05:02:32;;;;;;;0.45;0.40;;;0.70;99.90;;;;;;4982464;28;20050;-64
2021/11/22 05:04:59;;;;;;;1.17;0.60;;;0.70;99.90;;;;;;4983610;28;20046;-66
2021/11/22 05:07:26;;;;;;;1.58;0.65;;;0.70;99.90;;;;;;4982261;28;20049;-66
2021/11/22 05:09:53;;;;;;;1.52;1.10;;;0.70;99.90;;;;;;4986006;28;20043;-65
2021/11/22 05:12:21;;;;;;;2.60;0.80;;;0.70;99.90;;;;;;4984363;28;20042;-66
2021/11/22 05:14:48;;;;;;;1.17;0.55;;;0.80;99.90;;;;;;4987456;28;20116;-63
2021/11/22 05:17:15;;;;;;;1.13;0.52;;;0.70;99.90;;;;;;4991201;28;20066;-65
2021/11/22 05:19:42;;;;;;;1.00;0.88;;;0.70;99.90;;;;;;4987438;28;20498;-64
2021/11/22 05:22:12;;;;;;;1.33;0.75;;;0.70;99.90;;;;;;4985909;28;20038;-64
2021/11/22 05:24:39;;;;;;;1.75;0.52;;;0.80;99.90;;;;;;4986600;28;20411;-64
2021/11/22 05:27:06;;;;;;;1.55;0.65;;;0.80;99.90;;;;;;4985586;28;20050;-65
2021/11/22 05:29:34;;;;;;;2.92;1.15;;;0.80;99.90;;;;;;4992123;28;20045;-65
2021/11/22 05:32:01;;;;;;;3.22;0.65;;;0.70;99.90;;;;;;4990463;28;20124;-67
2021/11/22 05:34:28;;;;;;;2.08;1.27;;;0.70;99.90;;;;;;4989059;28;20050;-64
2021/11/22 05:36:55;;;;;;;0.88;0.73;;;0.80;99.90;;;;;;4991196;28;20097;-67
2021/11/22 05:39:22;;;;;;;3.80;0.85;;;0.90;99.90;;;;;;4984741;28;20050;-65
2021/11/22 05:41:49;;;;;;;0.63;0.40;;;1.00;99.90;;;;;;4986970;28;20038;-64
2021/11/22 05:44:16;;;;;;;0.52;0.20;;;1.20;99.90;;;;;;4985169;28;20396;-65
2021/11/22 05:46:43;;;;;;;1.30;0.28;;;1.30;99.90;;;;;;4988007;28;20124;-63
2021/11/22 05:49:10;;;;;;;0.95;0.30;;;1.50;99.90;;;;;;4983689;28;20515;-63
2021/11/22 05:51:38;;;;;;;1.27;0.47;;;1.50;99.90;;;;;;4984639;28;20042;-68
2021/11/22 05:54:05;;;;;;;0.80;0.10;;;1.50;99.90;;;;;;4984929;28;20468;-63
2021/11/22 05:56:32;;;;;;;4.10;0.40;;;1.60;99.90;;;;;;4985263;28;20050;-64
2021/11/22 05:58:59;;;;;;;1.08;0.63;;;1.60;99.90;;;;;;4986403;28;20373;-67
2021/11/22 06:01:26;;;;;;;0.75;0.38;;;1.60;99.90;;;;;;4983126;28;20078;-66
2021/11/22 06:03:53;;;;;;;1.80;0.40;;;1.60;99.90;;;;;;4979946;28;20054;-64
2021/11/22 06:06:20;;;;;;;2.78;0.32;;;1.70;99.90;;;;;;4985302;28;20050;-63
2021/11/22 06:08:47;;;;;;;0.60;0.30;;;1.60;99.90;;;;;;4987176;28;20092;-63
2021/11/22 06:11:14;;;;;;;3.38;0.43;;;1.70;99.90;;;;;;4982605;28;20038;-65
2021/11/22 06:13:41;;;;;;;0.73;0.30;;;1.60;99.90;;;;;;4980614;28;20055;-67
2021/11/22 06:16:08;;;;;;;1.55;0.20;;;1.60;99.90;;;;;;4988120;28;20120;-64
2021/11/22 06:18:35;;;;;;;1.65;1.10;;;1.70;99.90;;;;;;4984797;28;20100;-64
2021/11/22 06:21:02;;;;;;;0.73;0.47;;;1.60;99.90;;;;;;4983783;28;20112;-65
2021/11/22 06:23:29;;;;;;;1.75;0.40;;;1.70;99.90;;;;;;4979715;28;20046;-67
2021/11/22 06:25:56;;;;;;;1.05;0.38;;;1.70;99.90;;;;;;4980237;28;20046;-69
2021/11/22 06:28:23;;;;;;;2.30;0.22;;;1.70;99.90;;;;;;4984967;28;20065;-65
2021/11/22 06:30:50;;;;;;;2.72;0.65;;;1.70;99.90;;;;;;4986597;28;20128;-67
2021/11/22 06:33:17;;;;;;;0.65;0.40;;;1.60;99.90;;;;;;4981886;28;20057;-65
2021/11/22 06:35:44;;;;;;;0.32;0.30;;;1.60;99.90;;;;;;5000013;28;20568;-64
2021/11/22 06:38:12;;;;;;;1.65;0.47;;;1.70;99.90;;;;;;4985526;28;20042;-65
2021/11/22 06:40:40;;;;;;;0.60;0.20;;;1.60;99.90;;;;;;4983852;28;20050;-63
2021/11/22 06:43:08;;;;;;;0.50;0.20;;;1.70;99.90;;;;;;4980580;28;20486;-63
2021/11/22 06:45:35;;;;;;;4.00;0.30;;;1.70;99.90;;;;;;4986277;28;20046;-63
2021/11/22 06:48:02;;;;;;;1.50;0.22;;;1.70;99.90;;;;;;4983656;28;20061;-66
2021/11/22 06:50:29;;;;;;;2.28;0.40;;;1.70;99.90;;;;;;4985087;28;20057;-63
2021/11/22 06:52:56;;;;;;;2.35;0.50;;;1.70;99.90;;;;;;4989015;28;20054;-64
2021/11/22 06:55:23;;;;;;;1.15;0.40;;;1.70;99.90;;;;;;4982391;28;20037;-63
2021/11/22 06:57:51;;;;;;;1.60;0.43;;;1.70;99.90;;;;;;4985196;28;20510;-67
2021/11/22 07:00:21;;;;;;;2.40;0.30;;;1.70;99.90;;;;;;4981630;28;20512;-65
2021/11/22 07:02:51;;;;;;;0.98;0.50;;;1.70;99.90;;;;;;4984461;28;20105;-63
2021/11/22 07:05:22;;;;;;;0.88;0.55;;;1.70;99.90;;;;;;4981487;28;20060;-63
2021/11/22 07:07:50;;;;;;;1.52;0.30;;;1.70;99.90;;;;;;4986234;28;20089;-64
2021/11/22 07:10:21;;;;;;;0.80;0.32;;;1.80;99.90;;;;;;4984896;28;20759;-64
2021/11/22 07:12:51;;;;;;;11.38;1.30;;;1.70;99.90;;;;;;4986896;28;20051;-65
2021/11/22 07:15:22;;;;;;;0.65;0.25;;;1.70;99.90;;;;;;4983070;28;20080;-66
2021/11/22 07:17:50;;;;;;;1.10;0.30;;;1.70;99.90;;;;;;4991867;28;20133;-64
2021/11/22 07:20:19;;;;;;;0.25;0.10;;;1.60;99.90;;;;;;4984640;28;20046;-65
2021/11/22 07:22:46;;;;;;;0.85;0.30;;;1.70;99.90;;;;;;4988084;28;20074;-64
2021/11/22 07:25:13;;;;;;;1.15;0.68;;;1.70;99.90;;;;;;4983602;28;20097;-69
2021/11/22 07:27:40;;;;;;;1.20;0.28;;;1.70;99.90;;;;;;4988159;28;20126;-63
2021/11/22 07:30:08;;;;;;;0.47;0.32;;;1.60;99.90;;;;;;4984140;28;20396;-65
2021/11/22 07:32:35;;;;;;;2.08;0.20;;;1.70;99.90;;;;;;4987643;28;20038;-65
2021/11/22 07:35:02;;;;;;;0.75;0.60;;;1.70;99.90;;;;;;4984575;28;20551;-66
2021/11/22 07:37:30;;;;;;;0.52;0.22;;;1.60;99.90;;;;;;4989413;28;20050;-68
2021/11/22 07:39:57;;;;;;;1.08;0.35;;;1.60;99.90;;;;;;4986642;28;20046;-69
2021/11/22 07:42:24;;;;;;;0.73;0.10;;;1.60;99.90;;;;;;4984802;28;20110;-65
2021/11/22 07:44:51;;;;;;;1.45;0.13;;;1.60;99.90;;;;;;4986168;28;20120;-64
2021/11/22 07:47:18;;;;;;;1.17;0.28;;;1.60;99.90;;;;;;4981466;28;20755;-65
2021/11/22 07:49:45;;;;;;;0.00;0.00;;;1.70;99.90;;;;;;4981895;28;20065;-65
2021/11/22 07:52:13;;;;;;;1.02;0.22;;;1.70;99.90;;;;;;4986725;28;20050;-65
2021/11/22 07:54:40;;;;;;;0.45;0.45;;;1.60;99.90;;;;;;4988763;28;20050;-64
2021/11/22 07:57:07;;;;;;;0.73;0.20;;;1.60;99.90;;;;;;4981456;28;20055;-69
2021/11/22 07:59:34;;;;;;;1.10;0.30;;;1.60;99.90;;;;;;4985530;28;20046;-65
2021/11/22 08:02:02;;;;;;;0.57;0.30;;;1.60;99.90;;;;;;4988970;28;20046;-65
2021/11/22 08:04:30;;;;;;;4.00;0.75;;;1.60;99.90;;;;;;4983163;28;20130;-68
2021/11/22 08:07:01;;;;;;;0.38;0.28;;;1.60;99.90;;;;;;4988676;28;20041;-66
2021/11/22 08:09:34;;;;;;;0.80;0.20;;;1.60;99.90;;;;;;4985060;28;20043;-64
2021/11/22 08:14:39;;;;;;;0.47;0.20;;;1.60;99.90;;;;;;4987586;28;20039;-69
2021/11/22 08:17:10;;;;;;;0.65;0.30;;;1.60;99.90;;;;;;4987496;28;20108;-69
2021/11/22 08:19:37;;;;;;;2.15;0.28;;;1.60;99.90;;;;;;5002063;28;20505;-64
2021/11/22 08:22:06;;;;;;;5.68;0.52;;;1.60;99.90;;;;;;4986199;28;20491;-64
2021/11/22 08:24:33;;;;;;;1.75;0.17;;;1.60;99.90;;;;;;4982461;28;20093;-64
2021/11/22 08:27:00;;;;;;;2.17;0.10;;;1.60;99.90;;;;;;4982157;28;20058;-65
2021/11/22 08:29:27;;;;;;;2.33;0.32;;;1.60;99.90;;;;;;4984101;28;20046;-63
2021/11/22 08:31:54;;;;;;;0.60;0.22;;;1.70;99.90;;;;;;4989343;28;20097;-64
2021/11/22 08:34:22;;;;;;;1.98;0.32;;;1.70;99.90;;;;;;4988245;28;20060;-64
2021/11/22 08:36:49;;;;;;;1.95;0.40;;;1.70;99.90;;;;;;4997942;28;20475;-64
2021/11/22 08:39:16;;;;;;;1.08;0.30;;;1.70;99.90;;;;;;4980518;28;20646;-67
2021/11/22 08:41:43;;;;;;;3.28;0.10;;;1.70;99.90;;;;;;4987565;28;20050;-67
2021/11/22 08:44:10;;;;;;;6.63;0.45;;;1.60;99.90;;;;;;4988062;28;20051;-64
2021/11/22 08:46:38;;;;;;;0.52;0.20;;;1.60;99.90;;;;;;4989243;28;20038;-65
2021/11/22 08:49:07;;;;;;;4.72;0.32;;;1.70;99.90;;;;;;4982951;28;20049;-64
2021/11/22 08:51:35;;;;;;;1.63;0.85;;;1.70;99.90;;;;;;4989149;28;20042;-65
2021/11/22 08:54:03;;;;;;;0.50;0.40;;;1.70;99.90;;;;;;4984637;28;20096;-64
2021/11/22 08:56:31;;;;;;;0.55;0.20;;;1.70;99.90;;;;;;4982625;28;20105;-64
2021/11/22 08:58:59;;;;;;;1.50;0.30;;;1.70;99.90;;;;;;4982660;28;20053;-68
2021/11/22 09:01:27;;;;;;;6.50;0.55;;;1.70;99.90;;;;;;4989653;28;20551;-66
2021/11/22 09:03:56;;;;;;;0.82;0.20;;;1.70;99.90;;;;;;4983665;28;20104;-64
2021/11/22 09:06:23;;;;;;;1.67;0.30;;;1.70;99.90;;;;;;4983443;28;20042;-71
2021/11/22 09:08:51;;;;;;;0.35;0.10;;;1.70;99.90;;;;;;4983248;28;20111;-65
2021/11/22 09:11:18;;;;;;;1.65;0.20;;;1.70;99.90;;;;;;4984411;28;20042;-63
2021/11/22 09:13:46;;;;;;;1.02;0.30;;;1.80;99.90;;;;;;4984546;28;20050;-64
2021/11/22 09:16:13;;;;;;;3.03;1.23;;;1.80;99.90;;;;;;4986696;28;20054;-64
2021/11/22 09:18:40;;;;;;;0.50;0.10;;;1.80;99.90;;;;;;4981220;28;20099;-63
2021/11/22 09:21:08;;;;;;;1.10;0.17;;;1.80;99.90;;;;;;4986213;28;20490;-64
2021/11/22 09:23:35;;;;;;;0.55;0.20;;;1.80;99.90;;;;;;4986902;28;20046;-65
2021/11/22 09:26:02;;;;;;;1.75;0.15;;;1.80;99.90;;;;;;4983480;28;20051;-64
2021/11/22 09:28:29;;;;;;;1.10;0.20;;;1.80;99.90;;;;;;4989018;28;20380;-63
2021/11/22 09:30:56;;;;;;;2.47;0.47;;;1.80;99.90;;;;;;4984853;28;20046;-66
2021/11/22 09:33:23;;;;;;;0.30;0.10;;;1.80;99.90;;;;;;4986127;28;20046;-64
2021/11/22 09:35:50;;;;;;;1.77;0.30;;;1.80;99.90;;;;;;4985951;28;20050;-64
2021/11/22 09:38:17;;;;;;;0.32;0.15;;;1.80;99.90;;;;;;4987889;28;20097;-64
2021/11/22 09:40:44;;;;;;;0.73;0.30;;;1.80;99.90;;;;;;4984811;28;20049;-65
2021/11/22 09:43:11;;;;;;;0.50;0.08;;;1.80;99.90;;;;;;4983152;28;20073;-65
2021/11/22 09:45:39;;;;;;;0.52;0.30;;;1.80;99.90;;;;;;4985983;28;20037;-64
2021/11/22 09:48:06;;;;;;;1.98;0.82;;;1.80;99.90;;;;;;4981592;28;20050;-69
2021/11/22 09:50:34;;;;;;;3.30;0.35;;;1.90;99.90;;;;;;4985238;28;20042;-64
2021/11/22 09:53:02;;;;;;;4.20;0.20;;;1.80;99.90;;;;;;4983774;28;20061;-67
2021/11/22 09:55:30;;;;;;;0.95;0.35;;;1.90;99.90;;;;;;4982183;28;20140;-64
2021/11/22 09:58:02;;;;;;;1.17;0.35;;;1.90;99.90;;;;;;4986081;28;20030;-65
2021/11/22 10:00:34;;;;;;;1.13;0.28;;;1.90;99.90;;;;;;4982840;28;20100;-64
2021/11/22 10:03:02;;;;;;;0.30;0.30;;;1.90;99.90;;;;;;4982517;28;20382;-64
2021/11/22 10:05:35;;;;;;;5.38;0.43;;;1.90;99.90;;;;;;4984903;28;20057;-64
2021/11/22 10:08:11;;;;;;;1.98;0.28;;;1.90;99.90;;;;;;4985330;28;20435;-64
2021/11/22 10:10:39;;;;;;;3.00;0.30;;;1.80;99.90;;;;;;4983090;28;20054;-76
2021/11/22 10:13:24;;;;;;;4.55;0.30;;;1.90;99.90;;;;;;4985207;28;20042;-65
2021/11/22 10:15:55;;;;;;;2.83;0.30;;;1.90;99.90;;;;;;4984042;28;20058;-64
2021/11/22 10:18:25;;;;;;;0.15;0.10;;;1.90;99.90;;;;;;4988640;28;20042;-63
2021/11/22 10:20:53;;;;;;;0.13;0.00;;;1.90;99.90;;;;;;4983431;28;20058;-63
2021/11/22 10:23:23;;;;;;;2.00;0.30;;;1.90;99.90;;;;;;4983349;28;20579;-67
2021/11/22 10:25:51;;;;;;;0.43;0.20;;;1.90;99.90;;;;;;4998889;28;20416;-69
2021/11/22 10:28:28;;;;;;;0.45;0.10;;;1.90;99.90;;;;;;4985034;28;20050;-63
2021/11/22 10:31:05;;;;;;;0.40;0.10;;;1.90;99.90;;;;;;4984067;28;20496;-64
2021/11/22 10:33:34;;;;;;;0.43;0.20;;;1.90;99.90;;;;;;4979326;28;20137;-64
2021/11/22 10:36:07;;;;;;;1.45;0.45;;;1.90;99.90;;;;;;4982646;28;20516;-65
2021/11/22 10:38:37;;;;;;;3.08;0.63;;;2.00;99.90;;;;;;4986600;28;20046;-64
2021/11/22 10:41:28;;;;;;;1.25;0.20;;;2.00;99.90;;;;;;4975879;28;20074;-67
2021/11/22 10:44:03;;;;;;;0.45;0.10;;;2.00;99.90;;;;;;4983950;28;20169;-64
2021/11/22 10:46:34;;;;;;;1.25;0.40;;;2.00;99.90;;;;;;4981191;28;20043;-63
2021/11/22 10:49:16;;;;;;;4.10;0.30;;;2.00;99.90;;;;;;4986414;28;20514;-64
2021/11/22 10:51:47;;;;;;;3.85;0.45;;;2.10;99.90;;;;;;4983082;28;20046;-69
2021/11/22 10:54:17;;;;;;;3.63;0.40;;;2.10;99.90;;;;;;4983281;28;20059;-64
2021/11/22 10:56:50;;;;;;;7.82;0.73;;;2.10;99.90;;;;;;4981983;28;20050;-63
2021/11/22 10:59:20;;;;;;;1.13;0.20;;;2.10;99.90;;;;;;4981818;28;20165;-64
2021/11/22 11:01:55;;;;;;;3.33;0.38;;;2.20;99.90;;;;;;4981461;28;20062;-63
2021/11/22 11:04:24;;;;;;;2.85;0.13;;;2.20;99.90;;;;;;4985887;28;20053;-64
2021/11/22 11:07:01;;;;;;;0.50;0.13;;;2.20;99.90;;;;;;4981200;28;20047;-63
2021/11/22 11:09:35;;;;;;;1.38;0.15;;;2.20;99.90;;;;;;4988196;28;20264;-67
2021/11/22 11:12:04;;;;;;;3.92;0.40;;;2.20;99.90;;;;;;4980792;28;20052;-66
2021/11/22 11:14:33;;;;;;;3.97;0.63;;;2.10;99.90;;;;;;4984394;28;20112;-65
2021/11/22 11:17:28;;;;;;;3.58;0.45;;;2.10;99.90;;;;;;4980622;28;20486;-66
2021/11/22 11:19:56;;;;;;;1.67;0.15;;;2.20;99.90;;;;;;4986265;28;20085;-66
2021/11/22 11:22:25;;;;;;;4.78;1.15;;;2.20;99.90;;;;;;4982259;28;20047;-65
2021/11/22 11:24:52;;;;;;;3.80;0.52;;;2.20;99.90;;;;;;4983461;28;20046;-67
2021/11/22 11:27:31;;;;;;;2.75;0.45;;;2.20;99.90;;;;;;4982345;28;20057;-64
2021/11/22 11:29:59;;;;;;;2.67;0.63;;;2.20;99.90;;;;;;4978746;28;20094;-64
2021/11/22 11:32:28;;;;;;;0.98;0.20;;;2.20;99.90;;;;;;4982298;28;20070;-65
2021/11/22 11:34:56;;;;;;;0.93;0.20;;;2.20;99.90;;;;;;5001792;28;20100;-64
2021/11/22 11:37:50;;;;;;;0.43;0.35;;;2.10;99.90;;;;;;4978852;28;20042;-63
2021/11/22 11:40:55;;;;;;;1.33;0.43;;;2.10;99.90;;;;;;4980000;28;20050;-64
2021/11/22 11:43:37;;;;;;;0.80;0.30;;;2.10;99.90;;;;;;4976836;28;20046;-63
2021/11/22 11:46:23;;;;;;;1.38;0.70;;;2.20;99.90;;;;;;4980404;28;20060;-66
2021/11/22 11:49:08;;;;;;;24.42;1.95;;;2.20;99.90;;;;;;4984224;28;20461;-63
2021/11/22 11:51:48;;;;;;;6.15;0.75;;;2.20;99.90;;;;;;4974130;28;20499;-65
2021/11/22 11:54:17;;;;;;;8.38;0.70;;;2.30;99.90;;;;;;4974562;28;20495;-66
2021/11/22 11:56:46;;;;;;;0.50;0.38;;;2.30;99.90;;;;;;4981481;28;20077;-63
2021/11/22 11:59:19;;;;;;;0.93;0.65;;;2.30;99.90;;;;;;5001216;28;20401;-63
2021/11/22 12:02:03;;;;;;;1.02;0.28;;;2.40;99.90;;;;;;4985372;28;20046;-64
2021/11/22 12:04:47;;;;;;;3.92;0.30;;;2.40;99.90;;;;;;4989066;28;20054;-64
2021/11/22 12:07:36;;;;;;;5.60;0.95;;;2.50;99.90;;;;;;4982003;28;20225;-64
2021/11/22 12:10:09;;;;;;;3.92;0.50;;;2.40;99.90;;;;;;4985956;28;20118;-66
2021/11/22 12:12:56;;;;;;;1.05;0.77;;;2.40;99.90;;;;;;4984453;28;20043;-68
2021/11/22 12:15:25;;;;;;;0.45;0.25;;;2.40;99.90;;;;;;4977464;28;20039;-62
2021/11/22 12:18:25;;;;;;;1.35;0.60;;;2.40;99.90;;;;;;4986665;28;20038;-64
2021/11/22 12:20:59;;;;;;;3.30;0.40;;;2.40;99.90;;;;;;4983078;28;20111;-64
2021/11/22 12:23:39;;;;;;;9.82;0.45;;;2.40;99.90;;;;;;4985136;28;20050;-66
2021/11/22 12:26:07;;;;;;;3.00;0.28;;;2.50;99.90;;;;;;4981792;28;20054;-64
2021/11/22 12:28:34;;;;;;;3.50;0.10;;;2.40;99.90;;;;;;4983489;28;20046;-64
2021/11/22 12:31:01;;;;;;;5.97;0.50;;;2.50;99.90;;;;;;4982843;28;20058;-63
2021/11/22 12:33:29;;;;;;;5.55;0.28;;;2.50;99.90;;;;;;4981936;28;20049;-64
2021/11/22 12:36:01;;;;;;;1.45;0.30;;;2.50;99.90;;;;;;4986292;28;20038;-66
2021/11/22 12:38:35;;;;;;;0.50;0.30;;;2.50;99.90;;;;;;4975731;28;20068;-64
2021/11/22 12:41:29;;;;;;;3.17;0.45;;;2.40;99.90;;;;;;4983232;28;20038;-65
2021/11/22 12:44:06;;;;;;;2.03;0.30;;;2.50;99.90;;;;;;4986756;28;20038;-66
2021/11/22 12:46:35;;;;;;;7.78;1.05;;;2.40;99.90;;;;;;4981448;28;20149;-65
2021/11/22 12:49:29;;;;;;;2.35;0.28;;;2.50;99.90;;;;;;4983192;28;20484;-63
2021/11/22 12:52:12;;;;;;;1.75;0.40;;;2.50;99.90;;;;;;4983567;28;20441;-64
2021/11/22 12:54:49;;;;;;;0.93;0.28;;;2.50;99.90;;;;;;4971606;28;20034;-70
2021/11/22 12:57:24;;;;;;;1.80;0.20;;;2.50;99.90;;;;;;4979042;28;20129;-66
2021/11/22 13:00:20;;;;;;;6.80;2.10;;;2.50;99.90;;;;;;4981924;28;20055;-70
2021/11/22 13:03:08;;;;;;;4.68;0.85;;;2.40;99.90;;;;;;4985426;28;20129;-63
2021/11/22 13:06:01;;;;;;;1.13;0.40;;;2.40;99.90;;;;;;4982358;28;20562;-62
2021/11/22 13:08:34;;;;;;;1.75;0.43;;;2.40;99.90;;;;;;4986154;28;20050;-63
2021/11/22 13:11:16;;;;;;;2.58;0.20;;;2.40;99.90;;;;;;4981730;28;20052;-65
2021/11/22 13:13:56;;;;;;;0.80;0.30;;;2.40;99.90;;;;;;4985761;28;20132;-63